METAR - Iceland

Last updated 19.04.2019 - at. 22:54

SIGMET for the last six hours

No SIGMET messages last 6 hours.

METAR from the last three hours

AerodromeTimeMessage
BIAR2019-04-19 22.00METAR BIAR 192200Z 16016KT 9999 BKN048 11/03 Q1001
BIAR2019-04-19 21.00METAR BIAR 192100Z 17014KT 9999 BKN048 11/03 Q1001
BIAR2019-04-19 20.00METAR BIAR 192000Z 18015KT 9999 BKN064 12/03 Q1000
BIEG2019-04-19 22.00METAR BIEG 192200Z 19009KT 9999 SCT050 10/04 Q1004
BIEG2019-04-19 21.00METAR BIEG 192100Z 25007KT 9999 SCT045 10/05 Q1004
BIEG2019-04-19 20.00METAR BIEG 192000Z 21010KT 9999 SCT035 BKN050 11/05 Q1005
BIKF2019-04-19 22.30METAR BIKF 192230Z 18018KT 7000 SHRA FEW006 BKN012CB OVC027 05/05 Q1000
BIKF2019-04-19 22.00METAR BIKF 192200Z 17019KT 9999 VCSH SCT017CB BKN055 05/04 Q1000
BIKF2019-04-19 21.30METAR BIKF 192130Z 18019KT 9999 FEW017CB SCT048 06/04 Q1000
BIKF2019-04-19 21.00METAR BIKF 192100Z 18021KT 9999 VCSH FEW015CB SCT043 06/04 Q1000
BIKF2019-04-19 20.30METAR BIKF 192030Z 17021KT 9999 VCSH FEW014CB SCT020TCU BKN035 06/05 Q1000
BIKF2019-04-19 20.00METAR BIKF 192000Z 17020KT 9999 FEW014CB FEW020TCU SCT035 06/05 Q0999
BIRK2019-04-19 22.00METAR BIRK 192200Z 17016KT 9999 -SHRA FEW020CB SCT026 BKN045 06/01 Q1001
BIRK2019-04-19 21.00METAR BIRK 192100Z 17018KT 9999 VCSH FEW020CB SCT025 BKN044 06/02 Q1001 RESHRA
BIRK2019-04-19 20.00METAR BIRK 192000Z 18018G29KT 9999 VCSH FEW017CB SCT024 BKN044 06/01 Q1001 RESHRA





Other related web sites


This website is built with Eplica CMS